createdAt,value
2018-05-17T00:01:21.972Z,101167.18
2018-05-17T00:03:50.432Z,101170.48
2018-05-17T00:06:19.774Z,101171.09
2018-05-17T00:08:48.257Z,101170.00
2018-05-17T00:11:16.770Z,101169.75
2018-05-17T00:13:45.367Z,101175.44
2018-05-17T00:16:13.907Z,101177.44
2018-05-17T00:18:42.877Z,101173.59
2018-05-17T00:21:12.207Z,101180.73
2018-05-17T00:23:40.705Z,101182.86
2018-05-17T00:26:09.156Z,101184.47
2018-05-17T00:28:37.605Z,101178.55
2018-05-17T00:31:06.217Z,101187.18
2018-05-17T00:33:34.680Z,101186.08
2018-05-17T00:36:03.169Z,101185.81
2018-05-17T00:38:31.686Z,101178.38
2018-05-17T00:41:00.178Z,101185.73
2018-05-17T00:43:28.671Z,101192.22
2018-05-17T00:45:57.210Z,101183.58
2018-05-17T00:48:25.692Z,101188.14
2018-05-17T00:50:54.179Z,101185.58
2018-05-17T00:53:32.304Z,101187.34
2018-05-17T00:56:00.741Z,101185.77
2018-05-17T00:58:29.233Z,101190.69
2018-05-17T01:00:57.677Z,101183.81
2018-05-17T01:03:26.154Z,101183.31
2018-05-17T01:05:54.628Z,101178.78
2018-05-17T01:08:23.091Z,101180.02
2018-05-17T01:10:51.568Z,101176.77
2018-05-17T01:13:20.074Z,101179.25
2018-05-17T01:15:48.543Z,101181.02
2018-05-17T01:18:17.056Z,101187.89
2018-05-17T01:20:45.544Z,101185.52
2018-05-17T01:23:14.013Z,101188.68
2018-05-17T01:25:42.473Z,101188.89
2018-05-17T01:28:10.962Z,101190.01
2018-05-17T01:30:39.418Z,101199.66
2018-05-17T01:33:07.865Z,101201.91
2018-05-17T01:35:36.337Z,101199.09
2018-05-17T01:38:34.552Z,101199.48
2018-05-17T01:41:03.014Z,101197.45
2018-05-17T01:43:31.462Z,101204.59
2018-05-17T01:45:59.904Z,101199.07
2018-05-17T01:48:28.382Z,101202.47
2018-05-17T01:50:57.635Z,101204.02
2018-05-17T01:53:26.088Z,101204.84
2018-05-17T01:55:54.569Z,101202.61
2018-05-17T01:58:23.022Z,101204.54
2018-05-17T02:00:51.483Z,101205.31
2018-05-17T02:03:19.983Z,101208.33
2018-05-17T02:05:48.458Z,101213.96
2018-05-17T02:08:16.964Z,101214.08
2018-05-17T02:10:45.469Z,101210.98
2018-05-17T02:13:14.002Z,101215.06
2018-05-17T02:15:42.500Z,101213.63
2018-05-17T02:18:11.007Z,101210.51
2018-05-17T02:20:39.529Z,101212.82
2018-05-17T02:23:08.070Z,101212.84
2018-05-17T02:25:36.569Z,101216.50
2018-05-17T02:28:05.056Z,101210.11
2018-05-17T02:30:33.528Z,101212.87
2018-05-17T02:33:02.043Z,101221.38
2018-05-17T02:35:30.566Z,101218.55
2018-05-17T02:37:59.001Z,101218.59
2018-05-17T02:40:27.497Z,101226.18
2018-05-17T02:42:56.004Z,101218.62
2018-05-17T02:45:24.459Z,101229.51
2018-05-17T02:47:52.952Z,101227.10
2018-05-17T02:50:22.173Z,101226.57
2018-05-17T02:52:51.451Z,101223.66
2018-05-17T02:55:19.915Z,101226.86
2018-05-17T02:57:48.346Z,101223.70
2018-05-17T03:00:16.793Z,101224.16
2018-05-17T03:02:45.250Z,101220.32
2018-05-17T03:05:14.366Z,101225.78
2018-05-17T03:07:42.808Z,101223.52
2018-05-17T03:10:11.243Z,101228.27
2018-05-17T03:12:40.498Z,101233.95
2018-05-17T03:15:08.937Z,101230.19
2018-05-17T03:17:37.452Z,101236.50
2018-05-17T03:20:05.956Z,101237.34
2018-05-17T03:22:34.555Z,101239.16
2018-05-17T03:25:03.059Z,101242.28
2018-05-17T03:27:31.559Z,101239.85
2018-05-17T03:30:00.092Z,101236.17
2018-05-17T03:32:28.566Z,101246.03
2018-05-17T03:34:57.091Z,101246.33
2018-05-17T03:37:25.570Z,101245.56
2018-05-17T03:39:54.127Z,101247.33
2018-05-17T03:42:22.624Z,101246.03
2018-05-17T03:44:51.096Z,101247.30
2018-05-17T03:47:19.545Z,101248.47
2018-05-17T03:49:48.755Z,101247.28
2018-05-17T03:52:17.244Z,101253.43
2018-05-17T03:54:45.706Z,101248.31
2018-05-17T03:57:14.198Z,101249.70
2018-05-17T03:59:43.541Z,101250.22
2018-05-17T04:02:29.469Z,101239.53
2018-05-17T04:08:18.025Z,101248.83
2018-05-17T04:10:46.462Z,101243.84
2018-05-17T04:13:14.923Z,101252.98
2018-05-17T04:15:43.414Z,101252.47
2018-05-17T04:18:11.877Z,101251.70
2018-05-17T04:20:40.367Z,101248.83
2018-05-17T04:23:08.848Z,101251.92
2018-05-17T04:25:37.282Z,101258.28
2018-05-17T04:28:05.795Z,101252.66
2018-05-17T04:30:34.317Z,101261.20
2018-05-17T04:33:02.777Z,101266.31
2018-05-17T04:35:31.231Z,101267.16
2018-05-17T04:37:59.999Z,101271.52
2018-05-17T04:40:28.601Z,101267.08
2018-05-17T04:42:57.110Z,101263.10
2018-05-17T04:45:27.517Z,101269.12
2018-05-17T04:47:56.764Z,101268.80
2018-05-17T04:50:25.226Z,101266.56
2018-05-17T04:52:53.661Z,101261.05
2018-05-17T04:55:22.865Z,101265.57
2018-05-17T04:57:51.332Z,101270.70
2018-05-17T05:00:19.803Z,101268.80
2018-05-17T05:02:48.320Z,101268.58
2018-05-17T05:05:16.838Z,101268.64
2018-05-17T05:07:46.058Z,101266.46
2018-05-17T05:10:14.556Z,101267.83
2018-05-17T05:12:43.032Z,101262.19
2018-05-17T05:15:11.587Z,101266.27
2018-05-17T05:17:40.113Z,101270.70
2018-05-17T05:20:08.639Z,101274.22
2018-05-17T05:22:37.116Z,101271.45
2018-05-17T05:25:05.608Z,101279.91
2018-05-17T05:27:34.031Z,101272.14
2018-05-17T05:30:02.529Z,101279.16
2018-05-17T05:32:31.741Z,101270.86
2018-05-17T05:35:00.269Z,101273.16
2018-05-17T05:37:28.838Z,101281.18
2018-05-17T05:39:57.708Z,101276.65
2018-05-17T05:42:26.132Z,101280.05
2018-05-17T05:44:54.599Z,101285.63
2018-05-17T05:47:23.093Z,101284.80
2018-05-17T05:49:51.528Z,101285.91
2018-05-17T05:52:20.012Z,101289.05
2018-05-17T05:54:48.444Z,101288.86
2018-05-17T05:57:16.954Z,101290.86
2018-05-17T05:59:45.409Z,101288.70
2018-05-17T06:02:13.897Z,101291.66
2018-05-17T06:04:42.357Z,101287.92
2018-05-17T06:07:10.857Z,101282.83
2018-05-17T06:09:39.314Z,101288.13
2018-05-17T06:12:09.249Z,101286.13
2018-05-17T06:14:38.502Z,101291.97
2018-05-17T06:17:07.878Z,101293.94
2018-05-17T06:19:36.358Z,101292.20
2018-05-17T06:22:04.928Z,101297.58
2018-05-17T06:24:33.416Z,101297.97
2018-05-17T06:27:02.675Z,101290.73
2018-05-17T06:29:31.178Z,101297.25
2018-05-17T06:31:59.670Z,101292.27
2018-05-17T06:34:28.161Z,101298.09
2018-05-17T06:36:57.394Z,101294.94
2018-05-17T06:39:26.625Z,101299.75
2018-05-17T06:41:55.130Z,101295.84
2018-05-17T06:44:24.317Z,101296.10
2018-05-17T06:46:52.782Z,101299.34
2018-05-17T06:49:21.271Z,101295.97
2018-05-17T06:51:49.728Z,101292.88
2018-05-17T06:54:18.209Z,101299.27
2018-05-17T06:56:46.688Z,101295.44
2018-05-17T07:01:43.640Z,101299.63
2018-05-17T07:04:12.125Z,101298.98
2018-05-17T07:06:40.615Z,101302.02
2018-05-17T07:09:09.090Z,101304.08
2018-05-17T07:11:37.581Z,101301.52
2018-05-17T07:14:06.022Z,101299.50
2018-05-17T07:16:34.468Z,101296.36
2018-05-17T07:19:02.916Z,101304.39
2018-05-17T07:21:31.403Z,101302.89
2018-05-17T07:23:59.843Z,101303.25
2018-05-17T07:26:28.349Z,101303.83
2018-05-17T07:28:56.829Z,101304.13
2018-05-17T07:31:26.105Z,101302.95
2018-05-17T07:33:54.603Z,101299.99
2018-05-17T07:36:23.083Z,101303.08
2018-05-17T07:38:51.577Z,101301.85
2018-05-17T07:41:20.771Z,101303.61
2018-05-17T07:43:49.236Z,101302.36
2018-05-17T07:46:17.710Z,101308.88
2018-05-17T07:48:47.724Z,101307.84
2018-05-17T07:51:16.220Z,101308.25
2018-05-17T07:53:44.650Z,101307.09
2018-05-17T07:56:13.121Z,101305.08
2018-05-17T07:58:41.578Z,101297.70
2018-05-17T08:01:10.840Z,101299.82
2018-05-17T08:03:39.286Z,101306.27
2018-05-17T08:06:07.720Z,101303.66
2018-05-17T08:08:36.170Z,101311.78
2018-05-17T08:11:04.600Z,101315.98
2018-05-17T08:13:33.077Z,101313.44
2018-05-17T08:16:01.512Z,101322.39
2018-05-17T08:18:29.964Z,101318.10
2018-05-17T08:20:58.391Z,101321.55
2018-05-17T08:23:26.875Z,101324.20
2018-05-17T08:25:55.294Z,101319.94
2018-05-17T08:28:23.742Z,101323.17
2018-05-17T08:30:52.181Z,101314.07
2018-05-17T08:33:21.363Z,101307.28
2018-05-17T08:35:49.824Z,101306.06
2018-05-17T08:38:18.253Z,101311.20
2018-05-17T08:40:46.723Z,101313.95
2018-05-17T08:43:15.157Z,101307.02
2018-05-17T08:45:43.595Z,101298.58
2018-05-17T08:48:12.077Z,101311.20
2018-05-17T08:50:40.515Z,101316.45
2018-05-17T08:53:08.983Z,101314.38
2018-05-17T08:55:37.408Z,101312.75
2018-05-17T08:58:05.875Z,101314.02
2018-05-17T09:00:34.317Z,101305.09
2018-05-17T09:03:02.755Z,101303.84
2018-05-17T09:05:32.005Z,101318.23
2018-05-17T09:08:00.443Z,101318.69
2018-05-17T09:10:28.897Z,101317.03
2018-05-17T09:12:57.358Z,101319.07
2018-05-17T09:15:25.831Z,101314.51
2018-05-17T09:17:54.297Z,101317.52
2018-05-17T09:20:23.529Z,101323.95
2018-05-17T09:22:52.755Z,101319.42
2018-05-17T09:25:21.951Z,101320.25
2018-05-17T09:27:50.425Z,101318.86
2018-05-17T09:30:18.829Z,101320.28
2018-05-17T09:32:47.281Z,101325.63
2018-05-17T09:35:15.719Z,101318.46
2018-05-17T09:37:44.227Z,101320.05
2018-05-17T09:40:12.697Z,101318.20
2018-05-17T09:42:41.911Z,101318.97
2018-05-17T09:45:10.344Z,101317.70
2018-05-17T09:47:39.643Z,101321.52
2018-05-17T09:50:08.055Z,101311.17
2018-05-17T09:52:36.504Z,101306.40
2018-05-17T09:55:04.965Z,101309.39
2018-05-17T09:57:33.379Z,101305.48
2018-05-17T10:00:02.611Z,101307.41
2018-05-17T10:02:31.943Z,101302.66
2018-05-17T10:05:00.413Z,101303.70
2018-05-17T10:07:28.876Z,101310.84
2018-05-17T10:09:57.304Z,101309.08
2018-05-17T10:12:25.795Z,101314.30
2018-05-17T10:14:54.670Z,101316.80
2018-05-17T10:17:23.909Z,101316.09
2018-05-17T10:19:52.562Z,101307.61
2018-05-17T10:22:20.998Z,101305.80
2018-05-17T10:24:50.222Z,101303.12
2018-05-17T10:27:19.490Z,101308.76
2018-05-17T10:29:47.953Z,101305.98
2018-05-17T10:32:16.369Z,101300.07
2018-05-17T10:34:44.834Z,101297.70
2018-05-17T10:37:13.275Z,101295.91
2018-05-17T10:39:41.743Z,101291.05
2018-05-17T10:42:10.273Z,101293.34
2018-05-17T10:44:38.664Z,101293.89
2018-05-17T10:47:07.141Z,101295.03
2018-05-17T10:49:35.557Z,101282.00
2018-05-17T10:52:04.003Z,101284.19
2018-05-17T10:54:32.501Z,101283.88
2018-05-17T10:57:00.999Z,101281.53
2018-05-17T10:59:29.428Z,101278.26
2018-05-17T11:01:58.665Z,101281.74
2018-05-17T11:04:27.090Z,101279.47
2018-05-17T11:06:55.525Z,101277.08
2018-05-17T11:09:23.966Z,101280.04
2018-05-17T11:11:53.173Z,101281.84
2018-05-17T11:14:22.435Z,101276.30
2018-05-17T11:16:50.891Z,101279.11
2018-05-17T11:19:19.358Z,101279.39
2018-05-17T11:21:47.796Z,101272.13
2018-05-17T11:24:16.270Z,101273.67
2018-05-17T11:26:44.713Z,101267.20
2018-05-17T11:29:13.203Z,101262.45
2018-05-17T11:31:45.593Z,101259.36
2018-05-17T11:34:14.016Z,101261.41
2018-05-17T11:36:42.480Z,101258.58
2018-05-17T11:39:11.023Z,101257.35
2018-05-17T11:41:39.497Z,101261.09
2018-05-17T11:44:08.376Z,101258.25
2018-05-17T11:46:37.609Z,101258.67
2018-05-17T11:49:06.086Z,101259.27
2018-05-17T11:51:35.342Z,101254.51
2018-05-17T11:54:04.573Z,101244.84
2018-05-17T11:56:33.065Z,101248.30
2018-05-17T11:59:01.514Z,101243.52
2018-05-17T12:01:30.061Z,101247.01
2018-05-17T12:03:58.493Z,101245.04
2018-05-17T12:06:26.966Z,101250.91
2018-05-17T12:08:55.439Z,101244.98
2018-05-17T12:11:23.903Z,101241.97
2018-05-17T12:13:53.140Z,101238.36
2018-05-17T12:16:21.605Z,101245.61
2018-05-17T12:18:50.057Z,101234.90
2018-05-17T12:21:24.291Z,101232.37
2018-05-17T12:23:52.737Z,101233.80
2018-05-17T12:26:21.227Z,101230.83
2018-05-17T12:28:49.662Z,101230.37
2018-05-17T12:31:18.128Z,101230.30
2018-05-17T12:33:46.600Z,101225.95
2018-05-17T12:36:15.793Z,101223.49
2018-05-17T12:38:44.298Z,101226.36
2018-05-17T12:41:12.719Z,101227.22
2018-05-17T12:43:41.208Z,101222.73
2018-05-17T12:46:09.623Z,101224.48
2018-05-17T12:48:38.051Z,101217.05
2018-05-17T12:51:06.528Z,101220.63
2018-05-17T12:53:34.956Z,101220.98
2018-05-17T12:56:04.240Z,101219.13
2018-05-17T12:58:32.705Z,101223.27
2018-05-17T13:01:01.216Z,101224.83
2018-05-17T13:03:29.669Z,101221.72
2018-05-17T13:05:58.126Z,101220.50
2018-05-17T13:08:26.544Z,101220.94
2018-05-17T13:10:54.974Z,101207.98
2018-05-17T13:13:23.433Z,101215.41
2018-05-17T13:15:51.881Z,101221.46
2018-05-17T13:18:20.351Z,101211.02
2018-05-17T13:20:48.995Z,101208.77
2018-05-17T13:23:17.414Z,101205.71
2018-05-17T13:25:45.883Z,101202.53
2018-05-17T13:28:14.311Z,101214.45
2018-05-17T13:30:42.781Z,101208.06
2018-05-17T13:33:11.212Z,101212.22
2018-05-17T13:35:39.651Z,101196.59
2018-05-17T13:38:08.099Z,101201.36
2018-05-17T13:40:36.514Z,101183.20
2018-05-17T13:43:05.003Z,101195.56
2018-05-17T13:45:33.451Z,101191.69
2018-05-17T13:48:01.859Z,101189.88
2018-05-17T13:50:30.388Z,101176.17
2018-05-17T13:52:58.841Z,101181.66
2018-05-17T13:55:27.670Z,101186.98
2018-05-17T13:57:56.096Z,101191.47
2018-05-17T14:00:24.524Z,101186.48
2018-05-17T14:02:52.985Z,101184.66
2018-05-17T14:05:21.436Z,101181.09
2018-05-17T14:07:49.962Z,101182.30
2018-05-17T14:10:18.409Z,101179.52
2018-05-17T14:12:46.853Z,101190.45
2018-05-17T14:15:16.170Z,101193.13
2018-05-17T14:17:44.611Z,101192.84
2018-05-17T14:20:13.063Z,101186.19
2018-05-17T14:22:41.484Z,101184.20
2018-05-17T14:25:09.910Z,101183.06
2018-05-17T14:27:39.159Z,101182.36
2018-05-17T14:30:08.359Z,101186.47
2018-05-17T14:32:43.778Z,101179.81
2018-05-17T14:35:12.226Z,101185.14
2018-05-17T14:37:41.502Z,101185.05
2018-05-17T14:40:09.923Z,101180.16
2018-05-17T14:42:38.344Z,101186.09
2018-05-17T14:45:06.798Z,101179.47
2018-05-17T14:47:35.225Z,101185.63
2018-05-17T14:50:03.716Z,101186.50
2018-05-17T14:52:32.136Z,101179.33
2018-05-17T14:55:00.577Z,101190.31
2018-05-17T14:57:29.038Z,101182.50
2018-05-17T14:59:57.472Z,101179.95
2018-05-17T15:02:25.927Z,101178.30
2018-05-17T15:04:54.336Z,101180.10
2018-05-17T15:07:22.780Z,101179.23
2018-05-17T15:09:51.211Z,101177.39
2018-05-17T15:12:20.454Z,101178.25
2018-05-17T15:14:49.665Z,101178.03
2018-05-17T15:17:18.144Z,101187.28
2018-05-17T15:19:46.552Z,101180.64
2018-05-17T15:22:14.979Z,101173.64
2018-05-17T15:24:44.290Z,101176.97
2018-05-17T15:27:13.451Z,101180.91
2018-05-17T15:29:41.967Z,101178.69
2018-05-17T15:32:10.332Z,101171.23
2018-05-17T15:34:39.501Z,101178.36
2018-05-17T15:37:07.939Z,101178.47
2018-05-17T15:39:36.363Z,101181.25
2018-05-17T15:42:05.593Z,101174.91
2018-05-17T15:44:34.785Z,101183.69
2018-05-17T15:47:03.226Z,101184.41
2018-05-17T15:49:32.460Z,101183.02
2018-05-17T15:52:01.654Z,101178.84
2018-05-17T15:54:30.107Z,101180.38
2018-05-17T15:56:58.553Z,101185.45
2018-05-17T15:59:26.978Z,101174.83
2018-05-17T16:01:55.438Z,101173.95
2018-05-17T16:04:23.900Z,101179.17
2018-05-17T16:06:53.145Z,101163.22
2018-05-17T16:09:21.587Z,101164.91
2018-05-17T16:11:50.012Z,101161.48
2018-05-17T16:14:18.448Z,101161.48
2018-05-17T16:16:47.665Z,101158.11
2018-05-17T16:19:16.877Z,101163.51
2018-05-17T16:21:45.343Z,101164.73
2018-05-17T16:24:13.750Z,101169.16
2018-05-17T16:26:42.188Z,101167.23
2018-05-17T16:29:11.369Z,101170.04
2018-05-17T16:31:39.820Z,101178.88
2018-05-17T16:34:08.990Z,101180.55
2018-05-17T16:36:37.484Z,101185.76
2018-05-17T16:39:12.286Z,101185.63
2018-05-17T16:41:40.748Z,101176.89
2018-05-17T16:44:09.172Z,101174.81
2018-05-17T16:46:37.626Z,101180.01
2018-05-17T16:49:06.859Z,101177.78
2018-05-17T16:51:35.287Z,101174.56
2018-05-17T16:54:03.780Z,101181.55
2018-05-17T16:56:32.244Z,101181.03
2018-05-17T16:59:00.703Z,101184.98
2018-05-17T17:01:29.127Z,101184.62
2018-05-17T17:03:57.585Z,101188.65
2018-05-17T17:06:26.808Z,101186.84
2018-05-17T17:08:56.002Z,101194.09
2018-05-17T17:11:24.575Z,101193.31
2018-05-17T17:13:53.002Z,101189.98
2018-05-17T17:16:21.448Z,101189.23
2018-05-17T17:18:50.743Z,101192.53
2018-05-17T17:21:24.214Z,101190.06
2018-05-17T17:23:52.696Z,101189.16
2018-05-17T17:26:21.921Z,101199.52
2018-05-17T17:28:51.264Z,101197.91
2018-05-17T17:31:19.953Z,101205.30
2018-05-17T17:33:49.180Z,101197.55
2018-05-17T17:36:17.673Z,101193.06
2018-05-17T17:38:51.592Z,101202.44
2018-05-17T17:41:20.397Z,101194.93
2018-05-17T17:43:49.758Z,101194.48
2018-05-17T17:46:19.025Z,101193.84
2018-05-17T17:48:48.590Z,101193.86
2018-05-17T17:51:17.498Z,101205.34
2018-05-17T17:53:46.931Z,101206.75
2018-05-17T17:56:15.621Z,101210.09
2018-05-17T17:58:44.037Z,101203.86
2018-05-17T18:01:13.715Z,101222.05
2018-05-17T18:03:42.262Z,101213.23
2018-05-17T18:06:10.815Z,101220.78
2018-05-17T18:08:39.875Z,101217.88
2018-05-17T18:11:09.291Z,101218.33
2018-05-17T18:13:37.765Z,101214.91
2018-05-17T18:16:06.365Z,101216.63
2018-05-17T18:18:34.951Z,101215.47
2018-05-17T18:21:03.383Z,101221.94
2018-05-17T18:23:31.832Z,101222.74
2018-05-17T18:26:00.291Z,101227.66
2018-05-17T18:28:29.315Z,101226.02
2018-05-17T18:30:57.889Z,101229.22
2018-05-17T18:33:27.012Z,101233.22
2018-05-17T18:35:55.917Z,101240.47
2018-05-17T18:38:24.924Z,101239.11
2018-05-17T18:40:53.404Z,101238.30
2018-05-17T18:43:23.692Z,101243.96
2018-05-17T18:45:54.284Z,101241.33
2018-05-17T18:48:23.642Z,101245.36
2018-05-17T18:50:53.301Z,101246.00
2018-05-17T18:53:23.017Z,101240.64
2018-05-17T18:55:53.489Z,101253.04
2018-05-17T18:58:23.407Z,101249.50
2018-05-17T19:00:54.842Z,101253.70
2018-05-17T19:03:24.692Z,101253.28
2018-05-17T19:05:54.397Z,101257.39
2018-05-17T19:08:24.303Z,101258.84
2018-05-17T19:10:54.020Z,101263.26
2018-05-17T19:13:24.651Z,101268.59
2018-05-17T19:15:54.375Z,101271.67
2018-05-17T19:18:28.622Z,101275.90
2018-05-17T19:20:58.618Z,101281.66
2018-05-17T19:23:29.122Z,101278.01
2018-05-17T19:25:58.789Z,101284.66
2018-05-17T19:28:28.589Z,101288.44
2018-05-17T19:30:58.444Z,101287.25
2018-05-17T19:33:28.211Z,101294.06
2018-05-17T19:35:58.616Z,101299.98
2018-05-17T19:38:28.251Z,101299.38
2018-05-17T19:40:57.790Z,101305.73
2018-05-17T19:43:27.686Z,101309.78
2018-05-17T19:45:58.435Z,101314.02
2018-05-17T19:48:29.050Z,101312.31
2018-05-17T19:50:58.839Z,101320.05
2018-05-17T19:53:28.541Z,101323.39
2018-05-17T19:55:58.265Z,101330.76
2018-05-17T19:58:28.161Z,101336.17
2018-05-17T20:00:58.680Z,101339.37
2018-05-17T20:03:29.332Z,101335.16
2018-05-17T20:05:59.786Z,101343.83
2018-05-17T20:08:29.480Z,101339.80
2018-05-17T20:10:59.195Z,101347.86
2018-05-17T20:13:28.991Z,101350.89
2018-05-17T20:16:01.903Z,101356.86
2018-05-17T20:18:32.468Z,101350.21
2018-05-17T20:21:02.938Z,101356.98
2018-05-17T20:23:32.667Z,101356.31
2018-05-17T20:26:02.381Z,101353.88
2018-05-17T20:28:32.946Z,101364.09
2018-05-17T20:31:02.488Z,101360.20
2018-05-17T20:33:32.349Z,101360.54
2018-05-17T20:36:02.929Z,101366.25
2018-05-17T20:38:33.749Z,101364.85
2018-05-17T20:41:04.347Z,101364.22
2018-05-17T20:43:33.765Z,101363.90
2018-05-17T20:46:03.305Z,101369.20
2018-05-17T20:48:31.779Z,101374.66
2018-05-17T20:51:00.272Z,101369.96
2018-05-17T20:53:28.776Z,101371.81
2018-05-17T20:55:57.386Z,101375.55
2018-05-17T20:58:25.855Z,101376.14
2018-05-17T21:00:55.049Z,101374.45
2018-05-17T21:03:23.509Z,101378.52
2018-05-17T21:05:51.949Z,101379.41
2018-05-17T21:08:20.517Z,101382.30
2018-05-17T21:10:49.823Z,101376.66
2018-05-17T21:13:18.324Z,101383.59
2018-05-17T21:15:46.825Z,101385.11
2018-05-17T21:18:15.287Z,101385.58
2018-05-17T21:20:43.727Z,101387.23
2018-05-17T21:23:12.392Z,101378.02
2018-05-17T21:25:40.881Z,101381.60
2018-05-17T21:28:09.589Z,101382.78
2018-05-17T21:30:38.152Z,101385.09
2018-05-17T21:33:06.667Z,101384.52
2018-05-17T21:35:35.130Z,101386.07
2018-05-17T21:38:03.651Z,101391.20
2018-05-17T21:40:32.064Z,101392.05
2018-05-17T21:43:00.611Z,101392.55
2018-05-17T21:45:29.851Z,101389.25
2018-05-17T21:47:58.358Z,101388.77
2018-05-17T21:50:27.547Z,101394.20
2018-05-17T21:53:06.725Z,101389.13
2018-05-17T21:55:35.178Z,101393.84
2018-05-17T21:58:03.628Z,101382.44
2018-05-17T22:00:32.240Z,101387.48
2018-05-17T22:03:00.839Z,101384.20
2018-05-17T22:05:29.310Z,101380.66
2018-05-17T22:08:01.100Z,101392.28
2018-05-17T22:10:29.597Z,101395.94
2018-05-17T22:12:58.036Z,101392.09
2018-05-17T22:15:26.689Z,101394.66
2018-05-17T22:17:55.146Z,101394.64
2018-05-17T22:20:23.763Z,101395.34
2018-05-17T22:22:52.242Z,101399.16
2018-05-17T22:25:20.691Z,101398.48
2018-05-17T22:27:49.928Z,101400.86
2018-05-17T22:30:19.144Z,101394.25
2018-05-17T22:32:47.607Z,101395.00
2018-05-17T22:35:16.093Z,101395.80
2018-05-17T22:37:45.274Z,101391.80
2018-05-17T22:40:15.520Z,101395.35
2018-05-17T22:42:45.061Z,101400.06
2018-05-17T22:45:14.036Z,101392.93
2018-05-17T22:47:43.342Z,101387.02
2018-05-17T22:50:11.807Z,101390.97
2018-05-17T22:52:41.045Z,101395.95
2018-05-17T22:55:15.267Z,101391.00
2018-05-17T22:58:02.105Z,101392.00
2018-05-17T23:00:30.582Z,101384.80
2018-05-17T23:02:59.045Z,101379.13
2018-05-17T23:05:28.565Z,101375.68
2018-05-17T23:07:57.817Z,101374.41
2018-05-17T23:10:26.285Z,101374.58
2018-05-17T23:12:55.516Z,101371.02
2018-05-17T23:15:24.810Z,101372.41
2018-05-17T23:17:53.226Z,101375.04
2018-05-17T23:20:21.699Z,101381.41
2018-05-17T23:22:50.262Z,101375.95
2018-05-17T23:25:19.494Z,101376.55
2018-05-17T23:27:48.729Z,101377.59
2018-05-17T23:30:17.558Z,101376.17
2018-05-17T23:32:46.325Z,101372.19
2018-05-17T23:35:14.740Z,101368.38
2018-05-17T23:37:43.264Z,101370.88
2018-05-17T23:40:30.181Z,101372.90
2018-05-17T23:42:58.729Z,101372.61
2018-05-17T23:45:27.177Z,101374.78
2018-05-17T23:47:55.595Z,101373.88
2018-05-17T23:50:24.046Z,101371.30
2018-05-17T23:52:52.491Z,101366.02
2018-05-17T23:55:20.945Z,101368.16
2018-05-17T23:57:49.370Z,101371.06
